Terminal Aerodrome Forecast
Issued by NWS

Home | Current Version | Previous Version | Text Only | Print | Product List | Glossary Off
Versions: 1 2 3 4 5 6 7 8 9 10 11 12 13 14 15 16 17 18 19 20

000
FTUS43 KTOP 251739
TAFMHK
TAF
KMHK 251739Z 2518/2618 15009KT P6SM FEW090 BKN200
     FM252000 13010KT P6SM VCTS SCT060CB
     FM260000 11009KT P6SM SCT060 BKN120
     FM260900 11005KT P6SM -SHRA VCTS BKN090CB=

USA.gov is the U.S. government's official web portal to all federal, state and local government web resources and services.